Terminal Aerodrome Forecast
Issued by NWS

Home | Current Version | Previous Version | Text Only | Print | Product List | Glossary On
Versions: 1 2 3 4 5 6 7 8 9 10 11 12 13 14 15 16 17
000
FTUS43 KDDC 210524
TAFGCK
TAF
KGCK 210524Z 2106/2206 09009KT P6SM SCT100
     FM211200 09012KT P6SM -SHRA BKN050
     FM211500 10016G24KT 4SM SHRA BR OVC015
     FM211700 07013KT 3SM SHRA BR OVC008
     FM212000 02012KT 2SM SHRA BR OVC008
     FM212300 01014KT 4SM -SHRA BR OVC008=

USA.gov is the U.S. government's official web portal to all federal, state and local government web resources and services.